Time;durP1;ratioP1;P1;durP2;ratioP2;P2;SDS_P1;SDS_P2;PMS_P1;PMS_P2;Temp;Humidity;BMP_temperature;BMP_pressure;BME280_temperature;BME280_humidity;BME280_pressure;Samples;Min_cycle;Max_cycle;Signal;HPM_P1;HPM_P2
2021/09/13 00:02:28;;;;;;;19.93;13.50;;;;;;;17.11;48.99;95049.44;5052892;28;20465;-70
2021/09/13 00:04:56;;;;;;;21.83;13.20;;;;;;;17.08;48.47;95042.03;5053804;28;21003;-71
2021/09/13 00:07:24;;;;;;;20.87;13.37;;;;;;;17.14;48.81;95046.19;5047375;28;20445;-72
2021/09/13 00:09:51;;;;;;;17.50;12.93;;;;;;;17.34;48.83;95046.88;5056011;28;20448;-72
2021/09/13 00:12:19;;;;;;;18.10;13.23;;;;;;;17.47;48.51;95040.81;5056809;28;20491;-71
2021/09/13 00:14:47;;;;;;;22.43;12.73;;;;;;;17.35;48.60;95048.47;5055166;28;20442;-71
2021/09/13 00:17:15;;;;;;;17.23;12.80;;;;;;;17.34;48.95;95041.56;5064871;28;20442;-71
2021/09/13 00:19:43;;;;;;;16.27;13.13;;;;;;;17.20;49.94;95049.53;5053404;28;20530;-72
2021/09/13 00:22:11;;;;;;;19.10;12.63;;;;;;;17.21;49.45;95054.53;5049818;28;20522;-70
2021/09/13 00:24:38;;;;;;;25.23;13.30;;;;;;;17.15;49.38;95045.09;5033609;28;20444;-70
2021/09/13 00:27:06;;;;;;;23.63;13.07;;;;;;;17.17;49.94;95052.75;5046651;28;20435;-72
2021/09/13 00:29:34;;;;;;;22.67;12.93;;;;;;;17.12;49.31;95056.28;5041863;28;20867;-71
2021/09/13 00:32:04;;;;;;;17.27;13.23;;;;;;;17.08;49.64;95044.69;5038098;28;20490;-70
2021/09/13 00:34:35;;;;;;;24.47;14.03;;;;;;;16.89;50.13;95046.63;5046280;28;20962;-70
2021/09/13 00:37:04;;;;;;;26.67;12.93;;;;;;;16.87;49.82;95062.00;5046625;28;20437;-71
2021/09/13 00:39:33;;;;;;;18.90;13.00;;;;;;;16.95;49.57;95055.28;5048215;28;20917;-69
2021/09/13 00:42:02;;;;;;;15.57;12.23;;;;;;;17.02;49.85;95045.84;5064810;28;20983;-72
2021/09/13 00:44:31;;;;;;;16.97;12.57;;;;;;;17.08;49.29;95055.28;5052647;28;20560;-72
2021/09/13 00:46:59;;;;;;;22.03;12.20;;;;;;;17.07;48.80;95056.38;5046204;28;20431;-72
2021/09/13 00:49:26;;;;;;;21.90;12.27;;;;;;;17.15;49.23;95055.69;5046757;28;20444;-71
2021/09/13 00:51:53;;;;;;;17.47;12.67;;;;;;;16.98;49.31;95060.75;5044238;28;21085;-70
2021/09/13 00:54:20;;;;;;;20.37;12.60;;;;;;;16.97;49.68;95058.41;5049046;28;20866;-71
2021/09/13 00:56:48;;;;;;;18.80;11.93;;;;;;;16.92;49.43;95061.91;5032994;28;20476;-70
2021/09/13 00:59:15;;;;;;;16.30;11.87;;;;;;;16.96;49.08;95051.53;5050235;28;20443;-71
2021/09/13 01:01:43;;;;;;;17.43;12.10;;;;;;;17.00;49.39;95057.81;5045174;28;20527;-70
2021/09/13 01:04:10;;;;;;;17.93;12.53;;;;;;;17.00;48.89;95068.41;5033813;28;20958;-72
2021/09/13 01:06:37;;;;;;;16.53;12.93;;;;;;;16.95;49.35;95063.97;5050253;28;20447;-71
2021/09/13 01:09:04;;;;;;;18.67;12.13;;;;;;;16.91;49.44;95070.16;5053145;28;20896;-70
2021/09/13 01:11:32;;;;;;;17.13;13.50;;;;;;;16.67;50.19;95066.84;5062421;28;20487;-71
2021/09/13 01:13:59;;;;;;;18.03;12.97;;;;;;;16.77;48.94;95067.47;5041663;28;20507;-70
2021/09/13 01:16:26;;;;;;;19.43;11.93;;;;;;;16.67;49.16;95049.13;5064146;28;21024;-71
2021/09/13 01:18:53;;;;;;;18.10;12.20;;;;;;;16.60;49.43;95064.56;5053221;28;20485;-72
2021/09/13 01:21:20;;;;;;;18.10;12.93;;;;;;;16.71;49.28;95065.19;5040690;28;20448;-72
2021/09/13 01:23:50;;;;;;;14.33;12.03;;;;;;;16.67;49.59;95059.69;5033042;28;20846;-70
2021/09/13 01:26:17;;;;;;;20.70;11.90;;;;;;;16.50;50.09;95043.56;5042881;28;20538;-71
2021/09/13 01:28:45;;;;;;;17.60;12.37;;;;;;;16.63;49.62;95069.28;5032039;28;20451;-71
2021/09/13 01:31:16;;;;;;;17.10;12.43;;;;;;;16.61;50.24;95071.41;5037947;28;20893;-70
2021/09/13 01:33:45;;;;;;;16.77;12.63;;;;;;;16.49;50.39;95062.34;5050638;28;20443;-71
2021/09/13 01:36:21;;;;;;;16.33;12.63;;;;;;;16.60;49.48;95064.56;5050156;28;20608;-71
2021/09/13 01:38:49;;;;;;;20.00;12.40;;;;;;;16.70;49.25;95069.69;5051460;28;20447;-71
2021/09/13 01:41:16;;;;;;;17.10;12.53;;;;;;;16.62;50.05;95070.38;5054503;28;20439;-71
2021/09/13 01:43:44;;;;;;;16.57;12.50;;;;;;;16.59;49.47;95078.84;5057917;28;20909;-73
2021/09/13 01:46:12;;;;;;;21.57;12.23;;;;;;;16.60;49.88;95079.66;5048508;28;20444;-71
2021/09/13 01:48:46;;;;;;;20.20;12.67;;;;;;;16.67;49.58;95083.50;5039504;28;20538;-72
2021/09/13 01:51:15;;;;;;;22.93;12.70;;;;;;;16.59;49.57;95083.34;5049893;28;20482;-71
2021/09/13 01:53:42;;;;;;;19.93;12.77;;;;;;;16.55;50.38;95071.78;5050348;28;20443;-73
2021/09/13 01:56:09;;;;;;;19.37;12.50;;;;;;;16.58;49.59;95087.09;5049175;28;20451;-73
2021/09/13 01:58:36;;;;;;;17.63;12.57;;;;;;;16.47;49.94;95081.16;5051976;28;20431;-72
2021/09/13 02:01:03;;;;;;;23.30;13.50;;;;;;;16.46;50.05;95090.13;5051597;28;20443;-70
2021/09/13 02:03:37;;;;;;;24.27;13.07;;;;;;;16.44;50.10;95086.97;5040844;28;20542;-70
2021/09/13 02:06:05;;;;;;;18.37;12.33;;;;;;;16.39;49.67;95083.63;5031235;28;20456;-69
2021/09/13 02:08:32;;;;;;;17.03;13.27;;;;;;;16.38;50.19;95085.50;5032479;28;20435;-70
2021/09/13 02:11:04;;;;;;;19.00;12.60;;;;;;;16.31;50.26;95086.94;5030208;28;20494;-71
2021/09/13 02:13:33;;;;;;;18.63;12.73;;;;;;;16.11;49.76;95061.56;5047863;28;20439;-70
2021/09/13 02:16:01;;;;;;;17.87;12.60;;;;;;;15.92;50.17;95052.81;5029472;28;20436;-71
2021/09/13 02:18:28;;;;;;;21.03;13.47;;;;;;;16.10;49.87;95078.47;5045145;28;20869;-71
2021/09/13 02:20:55;;;;;;;18.77;12.60;;;;;;;16.02;50.46;95073.84;5042881;28;20555;-73
2021/09/13 02:23:23;;;;;;;19.40;12.87;;;;;;;16.12;50.59;95086.91;5029499;28;20444;-72
2021/09/13 02:25:52;;;;;;;17.60;11.87;;;;;;;16.04;50.40;95079.59;5048274;28;20457;-71
2021/09/13 02:28:19;;;;;;;15.80;11.90;;;;;;;16.02;50.07;95090.47;5038562;28;20997;-72
2021/09/13 02:30:46;;;;;;;14.20;11.60;;;;;;;15.99;50.59;95091.03;5034617;28;20475;-71
2021/09/13 02:33:13;;;;;;;17.53;12.60;;;;;;;16.17;49.98;95092.13;5050043;28;20569;-73
2021/09/13 02:35:40;;;;;;;16.67;12.20;;;;;;;16.16;49.87;95094.00;5048718;28;20513;-70
2021/09/13 02:38:08;;;;;;;19.50;12.03;;;;;;;15.92;50.91;95079.25;5049471;28;20458;-71
2021/09/13 02:40:36;;;;;;;16.63;12.53;;;;;;;15.89;50.53;95100.97;5049484;28;20450;-70
2021/09/13 02:43:03;;;;;;;16.50;12.23;;;;;;;15.84;50.89;95101.78;5049148;28;20915;-71
2021/09/13 02:45:30;;;;;;;17.57;12.90;;;;;;;15.69;51.25;95101.19;5049679;28;20466;-73
2021/09/13 02:47:57;;;;;;;21.20;12.60;;;;;;;15.63;51.42;95089.91;5048478;28;21056;-71
2021/09/13 02:50:24;;;;;;;17.87;12.27;;;;;;;15.72;51.35;95098.00;5050606;28;20883;-72
2021/09/13 02:52:51;;;;;;;22.33;11.30;;;;;;;15.76;51.60;95106.94;5052509;28;20474;-71
2021/09/13 02:55:19;;;;;;;15.77;12.20;;;;;;;15.77;51.14;95097.91;5050025;28;20463;-72
2021/09/13 02:57:46;;;;;;;20.93;15.10;;;;;;;15.37;52.02;95093.06;5046568;28;20439;-68
2021/09/13 03:00:15;;;;;;;18.47;12.43;;;;;;;15.46;51.95;95101.97;5042675;28;20448;-70
2021/09/13 03:02:49;;;;;;;16.40;12.00;;;;;;;15.50;51.90;95095.06;5039498;28;21034;-71
2021/09/13 03:05:16;;;;;;;19.87;12.77;;;;;;;15.30;51.44;95105.81;5048553;28;20482;-71
2021/09/13 03:07:44;;;;;;;17.20;12.10;;;;;;;15.35;51.63;95108.38;5043387;28;20882;-71
2021/09/13 03:10:12;;;;;;;21.93;12.27;;;;;;;15.50;51.52;95114.34;5051257;28;20522;-71
2021/09/13 03:12:39;;;;;;;20.40;12.20;;;;;;;15.56;51.92;95112.44;5047778;28;20481;-69
2021/09/13 03:15:08;;;;;;;18.90;12.23;;;;;;;15.57;51.06;95100.78;5049843;28;20443;-72
2021/09/13 03:17:36;;;;;;;15.83;11.97;;;;;;;15.65;51.62;95113.38;5041463;28;20531;-73
2021/09/13 03:20:04;;;;;;;16.23;11.47;;;;;;;15.72;50.72;95101.41;5042469;28;20562;-71
2021/09/13 03:22:34;;;;;;;16.47;12.07;;;;;;;15.71;51.14;95109.63;5040249;28;20455;-70
2021/09/13 03:25:04;;;;;;;14.50;12.10;;;;;;;15.81;50.57;95112.16;5042818;28;20968;-69
2021/09/13 03:27:32;;;;;;;18.67;12.30;;;;;;;15.63;50.52;95107.59;5046093;28;20443;-71
2021/09/13 03:29:59;;;;;;;21.03;11.43;;;;;;;15.79;50.50;95111.63;5044956;28;20447;-68
2021/09/13 03:32:26;;;;;;;16.13;12.57;;;;;;;15.74;50.26;95114.34;5047049;28;21019;-70
2021/09/13 03:34:54;;;;;;;19.07;11.67;;;;;;;15.72;50.73;95106.72;5043640;28;20504;-70
2021/09/13 03:37:22;;;;;;;19.17;12.17;;;;;;;15.79;50.47;95111.63;5045998;28;20471;-69
2021/09/13 03:39:49;;;;;;;17.80;10.97;;;;;;;15.77;50.56;95119.06;5053514;28;20856;-71
2021/09/13 03:42:17;;;;;;;16.63;11.50;;;;;;;15.59;50.46;95127.72;5050945;28;20878;-70
2021/09/13 03:44:44;;;;;;;17.43;11.97;;;;;;;15.51;51.80;95126.47;5046255;28;20964;-71
2021/09/13 03:47:29;;;;;;;22.73;12.43;;;;;;;15.56;50.92;95118.50;5048527;28;20437;-69
2021/09/13 03:49:56;;;;;;;14.63;11.50;;;;;;;15.41;51.61;95120.50;5049186;28;20455;-69
2021/09/13 03:52:23;;;;;;;17.80;12.53;;;;;;;15.43;51.54;95118.38;5034651;28;20490;-72
2021/09/13 03:54:50;;;;;;;17.43;13.00;;;;;;;15.48;52.05;95131.53;5040354;28;20538;-70
2021/09/13 03:57:17;;;;;;;17.00;12.60;;;;;;;15.46;51.97;95139.72;5052529;28;20442;-71
2021/09/13 03:59:44;;;;;;;19.53;11.60;;;;;;;15.59;51.62;95133.00;5046969;28;20493;-69
2021/09/13 04:02:11;;;;;;;17.50;12.67;;;;;;;15.59;51.20;95133.00;5050735;28;20920;-70
2021/09/13 04:04:40;;;;;;;20.30;12.27;;;;;;;15.54;51.94;95135.69;5051120;28;20474;-72
2021/09/13 04:12:54;;;;;;;26.60;13.37;;;;;;;15.45;52.03;95137.38;5050890;28;20560;-72
2021/09/13 04:15:56;;;;;;;26.53;13.80;;;;;;;15.39;52.37;95138.44;5047741;28;20437;-70
2021/09/13 04:18:43;;;;;;;21.10;13.17;;;;;;;15.42;52.36;95137.94;5052588;28;20568;-70
2021/09/13 04:21:24;;;;;;;19.83;13.70;;;;;;;15.37;52.56;95145.84;5050639;28;20434;-71
2021/09/13 04:24:04;;;;;;;21.23;13.07;;;;;;;15.36;52.78;95149.59;5051004;28;20446;-71
2021/09/13 04:26:53;;;;;;;26.43;13.57;;;;;;;15.27;52.16;95129.03;5050624;28;20439;-70
2021/09/13 04:29:34;;;;;;;16.60;12.93;;;;;;;15.21;52.38;95153.94;5051335;28;20987;-70
2021/09/13 04:32:20;;;;;;;22.33;13.50;;;;;;;15.29;52.48;95144.59;5051431;28;20552;-71
2021/09/13 04:35:07;;;;;;;25.30;13.93;;;;;;;15.34;52.17;95151.72;5037326;28;20526;-71
2021/09/13 04:37:52;;;;;;;19.70;14.67;;;;;;;15.31;51.86;95154.91;5047254;28;20442;-70
2021/09/13 04:40:46;;;;;;;24.30;14.57;;;;;;;15.34;51.30;95157.00;5050165;28;20533;-70
2021/09/13 04:43:42;;;;;;;19.67;13.43;;;;;;;15.30;51.58;95154.13;5043510;28;20473;-70
2021/09/13 04:46:44;;;;;;;21.00;13.80;;;;;;;15.27;52.15;95156.53;5049356;28;20549;-69
2021/09/13 04:49:37;;;;;;;19.60;14.50;;;;;;;15.27;52.46;95161.81;5030852;28;20462;-70
2021/09/13 04:52:28;;;;;;;60.67;45.63;;;;;;;15.32;52.75;95159.91;5052985;28;20494;-72
2021/09/13 04:54:55;;;;;;;58.60;47.33;;;;;;;15.33;53.48;95166.00;5042164;28;20530;-71
2021/09/13 04:57:22;;;;;;;64.53;46.43;;;;;;;15.36;53.30;95160.13;5045179;28;20896;-73
2021/09/13 04:59:48;;;;;;;35.00;17.03;;;;;;;15.37;53.62;95172.25;5044912;28;20447;-72
2021/09/13 05:02:15;;;;;;;32.00;14.90;;;;;;;15.30;53.65;95166.53;5043529;28;20478;-71
2021/09/13 05:04:43;;;;;;;27.43;15.23;;;;;;;15.27;53.51;95160.72;5050998;28;20454;-69
2021/09/13 05:07:10;;;;;;;26.80;15.80;;;;;;;15.42;53.42;95177.56;5050442;28;20512;-70
2021/09/13 05:09:37;;;;;;;28.53;15.03;;;;;;;15.51;53.21;95167.97;5048859;28;20889;-70
2021/09/13 05:12:06;;;;;;;37.00;16.60;;;;;;;15.56;52.93;95176.63;5047350;28;20474;-70
2021/09/13 05:14:33;;;;;;;26.37;16.07;;;;;;;15.49;53.57;95170.84;5038440;28;20448;-70
2021/09/13 05:17:01;;;;;;;28.47;17.63;;;;;;;15.62;53.10;95180.78;5043158;28;20460;-70
2021/09/13 05:19:29;;;;;;;29.00;16.73;;;;;;;15.49;53.27;95172.72;5049900;28;20449;-70
2021/09/13 05:21:55;;;;;;;60.03;43.13;;;;;;;15.62;53.42;95175.47;5049378;28;20454;-74
2021/09/13 05:24:24;;;;;;;54.80;32.70;;;;;;;15.77;53.08;95182.47;5045626;28;20490;-74
2021/09/13 05:26:56;;;;;;;60.83;41.30;;;;;;;15.81;53.22;95188.78;5032890;28;20526;-71
2021/09/13 05:29:23;;;;;;;30.20;18.67;;;;;;;15.81;52.53;95192.22;5044322;28;20440;-70
2021/09/13 05:31:50;;;;;;;32.60;18.37;;;;;;;15.89;53.21;95190.81;5045635;28;20881;-70
2021/09/13 05:34:17;;;;;;;27.50;17.40;;;;;;;15.87;52.36;95171.81;5051304;28;20923;-71
2021/09/13 05:36:45;;;;;;;32.77;18.53;;;;;;;16.02;53.37;95184.84;5049535;28;20988;-73
2021/09/13 05:39:13;;;;;;;30.20;17.73;;;;;;;16.07;52.66;95187.44;5049079;28;20431;-72
2021/09/13 05:41:52;;;;;;;32.90;18.10;;;;;;;15.96;52.42;95188.63;5050403;28;20443;-74
2021/09/13 05:44:22;;;;;;;31.03;18.53;;;;;;;15.81;52.15;95186.13;5050869;28;20471;-76
2021/09/13 05:46:53;;;;;;;30.30;18.63;;;;;;;15.92;53.33;95179.66;5050219;28;20435;-74
2021/09/13 05:49:20;;;;;;;27.63;17.97;;;;;;;16.06;52.68;95185.84;5046694;28;20476;-75
2021/09/13 05:51:52;;;;;;;27.80;18.47;;;;;;;16.16;53.02;95181.25;5041590;28;20561;-73
2021/09/13 05:54:34;;;;;;;26.03;17.63;;;;;;;16.17;53.20;95182.00;5036343;28;20508;-74
2021/09/13 05:57:02;;;;;;;35.43;17.60;;;;;;;16.24;53.39;95180.59;5049697;28;20439;-75
2021/09/13 05:59:29;;;;;;;27.00;18.00;;;;;;;16.25;53.09;95184.03;5046067;28;20440;-76
2021/09/13 06:02:03;;;;;;;31.67;17.63;;;;;;;16.05;53.41;95173.72;5041852;28;20454;-72
2021/09/13 06:04:32;;;;;;;29.53;19.33;;;;;;;15.94;54.48;95188.91;5049935;28;20475;-71
2021/09/13 06:07:04;;;;;;;28.73;19.00;;;;;;;16.10;54.03;95189.50;5039006;28;20476;-74
2021/09/13 06:09:32;;;;;;;34.13;18.70;;;;;;;16.18;53.22;95181.72;5043874;28;20448;-74
2021/09/13 06:11:59;;;;;;;33.83;21.50;;;;;;;16.14;53.49;95193.16;5036420;28;20443;-71
2021/09/13 06:14:35;;;;;;;36.67;22.03;;;;;;;16.08;53.50;95178.41;5030369;28;20569;-78
2021/09/13 06:17:03;;;;;;;33.93;21.90;;;;;;;16.19;54.96;95193.91;5046240;28;20443;-74
2021/09/13 06:19:37;;;;;;;32.23;20.50;;;;;;;16.36;53.39;95174.91;5050468;28;20442;-72
2021/09/13 06:22:06;;;;;;;43.60;21.33;;;;;;;16.36;53.24;95179.41;5050680;28;20821;-74
2021/09/13 06:24:33;;;;;;;33.17;21.70;;;;;;;16.45;54.31;95189.06;5044121;28;20501;-73
2021/09/13 06:27:01;;;;;;;35.97;20.60;;;;;;;16.50;53.93;95180.31;5050748;28;20489;-72
2021/09/13 06:29:27;;;;;;;28.70;21.30;;;;;;;16.63;52.74;95185.69;5043367;28;20436;-75
2021/09/13 06:31:56;;;;;;;38.00;26.20;;;;;;;16.72;53.63;95189.28;5042929;28;20439;-72
2021/09/13 06:34:22;;;;;;;31.33;21.07;;;;;;;16.91;51.96;95192.72;5030130;28;20559;-74
2021/09/13 06:36:49;;;;;;;40.63;23.47;;;;;;;16.83;53.44;95179.31;5029759;28;20547;-69
2021/09/13 06:39:17;;;;;;;34.60;21.43;;;;;;;16.92;52.15;95188.97;5033335;28;20439;-74
2021/09/13 06:41:43;;;;;;;32.97;21.57;;;;;;;16.98;52.21;95182.53;5049019;28;20466;-75
2021/09/13 06:44:23;;;;;;;33.27;21.77;;;;;;;17.11;51.26;95188.97;5045730;28;20471;-75
2021/09/13 06:47:10;;;;;;;36.83;22.70;;;;;;;17.07;52.74;95182.66;5040649;28;20967;-70
2021/09/13 06:49:37;;;;;;;40.73;22.83;;;;;;;17.28;50.75;95165.38;5035090;28;20446;-73
2021/09/13 06:52:05;;;;;;;32.60;22.07;;;;;;;17.42;51.02;95189.25;5042478;28;20454;-73
2021/09/13 06:54:32;;;;;;;33.17;23.37;;;;;;;17.52;50.71;95197.03;5045454;28;21015;-76
2021/09/13 06:57:00;;;;;;;31.03;23.17;;;;;;;17.48;50.86;95186.25;5042317;28;20439;-72
2021/09/13 06:59:27;;;;;;;35.33;21.93;;;;;;;17.84;49.90;95189.06;5046354;28;20444;-74
2021/09/13 07:01:54;;;;;;;33.93;21.77;;;;;;;17.81;49.63;95184.38;5041990;28;20466;-75
2021/09/13 07:04:23;;;;;;;29.43;21.40;;;;;;;17.68;48.79;95190.44;5050739;28;20451;-75
2021/09/13 07:06:52;;;;;;;30.27;21.67;;;;;;;17.89;48.47;95192.41;5051630;28;20207;-69
2021/09/13 07:09:20;;;;;;;32.43;22.97;;;;;;;17.99;49.85;95191.44;5035509;28;20448;-72
2021/09/13 07:11:48;;;;;;;36.83;23.33;;;;;;;17.93;50.29;95188.09;5037071;28;20488;-71
2021/09/13 07:14:17;;;;;;;35.80;22.40;;;;;;;17.97;48.47;95198.91;5039680;28;20515;-72
2021/09/13 07:16:43;;;;;;;40.73;24.10;;;;;;;18.07;49.33;95199.50;5050501;28;20188;-74
2021/09/13 07:19:11;;;;;;;33.77;23.13;;;;;;;18.18;49.05;95192.13;5036828;28;20447;-73
2021/09/13 07:21:38;;;;;;;36.23;22.73;;;;;;;18.41;47.94;95193.81;5050430;28;20295;-73
2021/09/13 07:24:05;;;;;;;29.20;21.00;;;;;;;18.63;47.61;95185.91;5050311;28;20450;-73
2021/09/13 07:26:32;;;;;;;39.77;23.07;;;;;;;18.55;46.99;95183.97;5050370;28;20211;-72
2021/09/13 07:28:59;;;;;;;37.73;22.67;;;;;;;18.65;47.33;95188.28;5050150;28;20239;-73
2021/09/13 07:31:26;;;;;;;32.83;22.47;;;;;;;18.59;47.32;95186.81;5050025;28;20953;-72
2021/09/13 07:33:53;;;;;;;34.40;22.87;;;;;;;18.73;46.57;95188.34;5049523;28;20255;-75
2021/09/13 07:36:20;;;;;;;31.30;20.23;;;;;;;18.83;46.03;95182.03;5050196;28;20193;-72
2021/09/13 07:38:46;;;;;;;32.73;19.23;;;;;;;18.72;47.37;95189.44;5050336;28;20470;-74
2021/09/13 07:41:13;;;;;;;29.93;19.77;;;;;;;18.86;46.55;95184.88;5049903;28;20181;-73
2021/09/13 07:43:40;;;;;;;34.00;18.60;;;;;;;18.98;46.95;95171.84;5049919;28;20320;-74
2021/09/13 07:46:07;;;;;;;27.77;19.07;;;;;;;19.05;46.77;95190.81;5049951;28;20184;-74
2021/09/13 07:48:34;;;;;;;34.63;19.77;;;;;;;19.29;46.74;95193.16;5049716;28;20197;-75
2021/09/13 07:51:04;;;;;;;38.60;21.43;;;;;;;19.57;45.04;95185.88;5036044;28;20629;-74
2021/09/13 07:53:31;;;;;;;29.20;18.37;;;;;;;19.62;42.87;95191.06;5050588;28;20227;-74
2021/09/13 07:55:58;;;;;;;35.53;18.90;;;;;;;19.71;42.67;95190.03;5049298;28;20220;-74
2021/09/13 07:58:25;;;;;;;29.40;20.77;;;;;;;19.86;44.96;95191.50;5040294;28;20189;-76
2021/09/13 08:00:52;;;;;;;27.50;17.53;;;;;;;19.99;44.17;95180.78;5045176;28;20201;-75
2021/09/13 08:03:19;;;;;;;30.83;18.87;;;;;;;19.80;44.50;95182.09;5041549;28;20239;-70
2021/09/13 08:05:46;;;;;;;32.30;18.10;;;;;;;19.92;44.64;95179.66;5043916;28;20196;-71
2021/09/13 08:08:13;;;;;;;29.57;16.23;;;;;;;20.30;43.43;95175.44;5050278;28;20197;-73
2021/09/13 08:10:40;;;;;;;27.17;16.77;;;;;;;20.31;42.19;95182.31;5049437;28;20736;-70
2021/09/13 08:13:08;;;;;;;27.30;16.60;;;;;;;20.60;42.65;95171.88;5037825;28;20663;-71
2021/09/13 08:15:35;;;;;;;28.10;17.13;;;;;;;20.62;42.91;95176.94;5034293;28;20200;-70
2021/09/13 08:18:02;;;;;;;29.43;16.23;;;;;;;20.94;42.15;95179.94;5049181;28;20200;-71
2021/09/13 08:20:29;;;;;;;31.77;15.93;;;;;;;21.00;41.75;95172.59;5036229;28;20213;-72
2021/09/13 08:22:58;;;;;;;29.10;15.97;;;;;;;21.11;40.93;95166.63;5053449;28;20205;-72
2021/09/13 08:25:25;;;;;;;22.53;16.03;;;;;;;21.16;40.01;95179.03;5051933;28;20677;-74
2021/09/13 08:28:11;;;;;;;26.50;15.30;;;;;;;21.12;40.32;95170.88;5052398;28;20675;-72
2021/09/13 08:30:41;;;;;;;32.63;16.67;;;;;;;21.14;40.47;95174.00;5052910;28;20797;-72
2021/09/13 08:33:08;;;;;;;29.13;15.63;;;;;;;21.38;40.43;95156.72;5052964;28;20270;-70
2021/09/13 08:35:35;;;;;;;23.17;14.80;;;;;;;21.56;38.87;95163.59;5039209;28;20197;-70
2021/09/13 08:38:02;;;;;;;28.50;14.97;;;;;;;21.92;40.27;95159.44;5045468;28;20216;-71
2021/09/13 08:40:29;;;;;;;24.80;15.50;;;;;;;21.95;39.56;95171.38;5033030;28;20187;-72
2021/09/13 08:42:58;;;;;;;20.23;13.87;;;;;;;22.25;38.39;95164.16;5051743;28;20332;-74
2021/09/13 08:45:36;;;;;;;26.23;14.83;;;;;;;22.29;38.51;95160.53;5051730;28;20200;-72
2021/09/13 08:50:43;;;;;;;19.37;13.70;;;;;;;22.30;37.91;95156.75;5048171;28;20243;-74
2021/09/13 08:53:13;;;;;;;21.93;13.93;;;;;;;22.77;37.65;95152.84;5044436;28;20695;-73
2021/09/13 08:55:40;;;;;;;27.10;14.30;;;;;;;23.06;37.33;95147.44;5047078;28;20196;-73
2021/09/13 08:58:07;;;;;;;24.30;14.30;;;;;;;22.86;38.31;95144.78;5045799;28;20197;-72
2021/09/13 09:00:36;;;;;;;22.67;14.30;;;;;;;23.16;37.01;95150.84;5046433;28;20693;-71
2021/09/13 09:03:04;;;;;;;19.17;14.63;;;;;;;23.35;36.40;95133.22;5046314;28;20208;-71
2021/09/13 09:05:40;;;;;;;21.73;13.93;;;;;;;22.96;35.97;95142.50;5044717;28;20211;-72
2021/09/13 09:08:10;;;;;;;23.07;15.07;;;;;;;23.37;37.16;95127.56;5046940;28;20201;-71
2021/09/13 09:10:37;;;;;;;23.33;14.20;;;;;;;23.46;36.13;95112.19;5032189;28;20497;-73
2021/09/13 09:13:10;;;;;;;20.57;14.20;;;;;;;23.95;35.97;95127.22;5038971;28;20224;-72
2021/09/13 09:15:59;;;;;;;20.83;14.67;;;;;;;23.84;34.26;95134.13;5051038;28;20227;-72
2021/09/13 09:18:38;;;;;;;22.47;15.17;;;;;;;23.82;33.84;95136.34;5052576;28;20200;-74
2021/09/13 09:21:07;;;;;;;28.23;14.50;;;;;;;24.10;33.96;95115.88;5052117;28;20685;-71
2021/09/13 09:24:02;;;;;;;21.13;14.23;;;;;;;24.13;32.97;95122.44;5051787;28;20208;-69
2021/09/13 09:26:31;;;;;;;23.07;14.10;;;;;;;24.35;34.29;95122.00;5051652;28;20188;-71
2021/09/13 09:28:59;;;;;;;18.30;12.57;;;;;;;24.68;34.76;95118.06;5049392;28;20594;-72
2021/09/13 09:31:41;;;;;;;18.73;10.97;;;;;;;24.94;32.60;95106.97;5040789;28;20207;-71
2021/09/13 09:34:20;;;;;;;20.10;11.70;;;;;;;25.16;33.54;95105.63;5048166;28;20232;-73
2021/09/13 09:36:59;;;;;;;15.33;10.93;;;;;;;25.39;31.56;95106.66;5043079;28;20200;-72
2021/09/13 09:39:42;;;;;;;15.23;8.67;;;;;;;25.51;30.15;95093.22;5052422;28;20214;-73
2021/09/13 09:42:13;;;;;;;16.10;8.57;;;;;;;25.78;29.68;95097.72;5038148;28;20678;-71
2021/09/13 09:44:45;;;;;;;10.23;7.13;;;;;;;25.55;27.12;95099.41;5037553;28;20224;-74
2021/09/13 09:47:13;;;;;;;10.20;7.63;;;;;;;25.80;27.88;95095.47;5051694;28;20663;-71
2021/09/13 09:49:55;;;;;;;13.60;8.20;;;;;;;25.53;27.96;95093.66;5044130;28;20221;-71
2021/09/13 09:52:40;;;;;;;13.30;8.30;;;;;;;25.88;29.80;95091.81;5047376;28;20204;-71
2021/09/13 09:55:15;;;;;;;15.00;8.13;;;;;;;25.81;28.66;95070.97;5042184;28;20245;-74
2021/09/13 09:58:02;;;;;;;14.80;7.77;;;;;;;26.22;29.59;95085.78;5045748;28;20220;-72
2021/09/13 10:00:29;;;;;;;14.00;8.33;;;;;;;26.31;28.12;95088.28;5031495;28;20240;-71
2021/09/13 10:02:57;;;;;;;9.83;7.83;;;;;;;26.40;28.42;95086.97;5030903;28;20622;-70
2021/09/13 10:05:26;;;;;;;11.37;8.13;;;;;;;26.68;27.68;95087.59;5042699;28;20200;-71
2021/09/13 10:07:54;;;;;;;10.80;7.97;;;;;;;26.39;28.80;95071.94;5032990;28;20186;-72
2021/09/13 10:10:24;;;;;;;11.77;8.27;;;;;;;26.59;27.80;95078.13;5041726;28;20556;-71
2021/09/13 10:12:51;;;;;;;11.57;7.97;;;;;;;26.43;27.76;95075.50;5051080;28;20200;-71
2021/09/13 10:15:18;;;;;;;8.90;7.67;;;;;;;26.58;27.63;95066.63;5035123;28;20638;-72
2021/09/13 10:17:45;;;;;;;14.37;8.47;;;;;;;26.62;26.83;95077.44;5038658;28;20202;-70
2021/09/13 10:20:13;;;;;;;11.13;8.13;;;;;;;26.56;27.20;95074.25;5051206;28;20558;-73
2021/09/13 10:22:43;;;;;;;11.77;8.23;;;;;;;26.82;27.58;95071.75;5044077;28;20193;-73
2021/09/13 10:25:12;;;;;;;12.63;8.77;;;;;;;26.62;26.87;95070.13;5031281;28;20193;-73
2021/09/13 10:27:41;;;;;;;14.57;8.23;;;;;;;26.87;27.42;95074.16;5043976;28;20204;-73
2021/09/13 10:30:15;;;;;;;15.20;8.43;;;;;;;26.16;27.70;95071.06;5031541;28;20205;-72
2021/09/13 10:32:44;;;;;;;10.83;8.03;;;;;;;25.95;28.88;95051.72;5049963;28;20199;-70
2021/09/13 10:35:12;;;;;;;13.73;8.00;;;;;;;26.49;29.46;95067.94;5041332;28;20209;-70
2021/09/13 10:37:45;;;;;;;13.50;8.57;;;;;;;25.99;29.57;95060.63;5051407;28;20578;-71
2021/09/13 10:40:16;;;;;;;15.83;7.90;;;;;;;26.12;30.08;95064.81;5051821;28;20196;-69
2021/09/13 10:42:54;;;;;;;9.80;8.13;;;;;;;26.67;27.98;95056.44;5049471;28;20224;-73
2021/09/13 10:45:29;;;;;;;13.70;8.30;;;;;;;27.21;27.09;95059.06;5050966;28;20200;-73
2021/09/13 10:47:59;;;;;;;12.73;8.30;;;;;;;27.44;28.55;95057.22;5049936;28;20224;-71
2021/09/13 10:50:47;;;;;;;17.13;8.50;;;;;;;27.69;27.76;95061.13;5051302;28;20200;-71
2021/09/13 10:53:18;;;;;;;10.53;8.30;;;;;;;27.98;27.58;95054.28;5041688;28;20235;-70
2021/09/13 10:55:59;;;;;;;11.60;8.13;;;;;;;27.57;26.54;95057.81;5047008;28;20239;-73
2021/09/13 10:58:53;;;;;;;14.70;8.33;;;;;;;27.78;26.32;95053.56;5040919;28;20732;-71
2021/09/13 11:01:28;;;;;;;13.23;8.63;;;;;;;27.95;27.43;95057.72;5030000;28;20235;-71
2021/09/13 11:03:58;;;;;;;9.13;7.77;;;;;;;28.09;26.55;95047.16;5031371;28;20196;-70
2021/09/13 11:06:28;;;;;;;9.77;7.60;;;;;;;28.04;26.70;95044.78;5035409;28;20196;-75
2021/09/13 11:08:56;;;;;;;11.47;7.57;;;;;;;27.96;27.27;95048.50;5050443;28;20197;-70
2021/09/13 11:11:54;;;;;;;11.07;7.30;;;;;;;28.09;27.56;95047.16;5050239;28;20266;-72
2021/09/13 11:14:22;;;;;;;9.97;7.20;;;;;;;27.66;25.61;95040.28;5034844;28;20311;-69
2021/09/13 11:16:56;;;;;;;9.53;7.27;;;;;;;28.19;26.88;95049.25;5035516;28;20197;-70
2021/09/13 11:19:26;;;;;;;10.43;7.23;;;;;;;28.15;26.83;95034.94;5050330;28;20200;-73
2021/09/13 11:22:02;;;;;;;14.23;8.03;;;;;;;28.26;28.41;95041.25;5049345;28;20254;-70
2021/09/13 11:24:39;;;;;;;13.17;8.60;;;;;;;28.09;26.55;95011.34;5029995;28;20212;-72
2021/09/13 11:27:13;;;;;;;11.93;8.27;;;;;;;27.95;26.43;95014.63;5030801;28;20227;-72
2021/09/13 11:29:43;;;;;;;10.67;7.33;;;;;;;28.20;26.26;95026.53;5041975;28;20279;-70
2021/09/13 11:32:13;;;;;;;11.73;7.40;;;;;;;28.47;27.28;95019.97;5044382;28;20243;-68
2021/09/13 11:34:49;;;;;;;13.07;7.23;;;;;;;28.74;26.12;95013.41;5050305;28;20227;-70
2021/09/13 11:37:30;;;;;;;12.90;7.50;;;;;;;28.61;26.58;95009.41;5048550;28;20211;-71
2021/09/13 11:40:24;;;;;;;9.07;7.40;;;;;;;28.87;24.88;95006.63;5030018;28;20193;-71
2021/09/13 11:42:53;;;;;;;16.10;7.80;;;;;;;28.84;26.03;95012.78;5047426;28;20224;-72
2021/09/13 11:45:20;;;;;;;10.73;7.00;;;;;;;28.78;24.93;95014.25;5050523;28;20196;-71